Latest Weather Observations for Outer Harbor (Black Pole)

IDS60801

Issued at 3:31 am CST Monday 3 August 2015 (issued every 30 minutes, with the page automatically refreshed every 10 minutes)

About weather observations | Map of weather stations | Latest weather observations for SA | Other Formats
Station Details ID: 023052 Name: BLACK POLE Lat: -34.73 Lon: 138.47 Height: 8.0 m
Data from the previous 72 hours. | See also: Recent months for locations in South Australia
Date/Time
CST
Temp
°C
App
Temp
°C
Dew
Point
Rel
Hum
%
Delta-T
°C
Wind Press
QNH
hPa
Press
MSL
hPa
Rain
since 9 am
mm
Dir
 
Spd
km/h
Gust
km/h
Spd
kts
Gust
kts
03/03:30am - - - - - SW 37 50 20 27 - - -
03/03:00am - - - - - WSW 35 43 19 23 - - -
03/02:30am - - - - - WSW 35 44 19 24 - - -
03/02:00am - - - - - WSW 35 44 19 24 - - -
03/01:30am - - - - - W 28 33 15 18 - - -
03/01:00am - - - - - W 28 32 15 17 - - -
03/12:30am - - - - - WSW 33 41 18 22 - - -
03/12:00am - - - - - W 30 35 16 19 - - -
 
Date/Time
CST
Temp
°C
App
Temp
°C
Dew
Point
Rel
Hum
%
Delta-T
°C
Wind Press
QNH
hPa
Press
MSL
hPa
Rain
since 9 am
mm
Dir
 
Spd
km/h
Gust
km/h
Spd
kts
Gust
kts
02/11:30pm - - - - - W 28 33 15 18 - - -
02/11:00pm - - - - - W 30 37 16 20 - - -
02/10:30pm - - - - - W 30 35 16 19 - - -
02/10:00pm - - - - - W 24 32 13 17 - - -
02/09:30pm - - - - - W 24 28 13 15 - - -
02/09:00pm - - - - - W 26 32 14 17 - - -
02/08:30pm - - - - - WSW 28 35 15 19 - - -
02/08:00pm - - - - - WSW 32 39 17 21 - - -
02/07:30pm - - - - - WSW 30 35 16 19 - - -
02/07:02pm - - - - - W 28 54 15 29 - - -
02/07:00pm - - - - - W 24 32 13 17 - - -
02/06:30pm - - - - - W 26 32 14 17 - - -
02/06:00pm - - - - - WSW 24 28 13 15 - - -
02/05:30pm - - - - - WSW 22 28 12 15 - - -
02/05:00pm - - - - - W 20 24 11 13 - - -
02/04:30pm - - - - - W 22 28 12 15 - - -
02/04:00pm - - - - - W 28 33 15 18 - - -
02/03:30pm - - - - - W 28 32 15 17 - - -
02/03:00pm - - - - - WSW 35 52 19 28 - - -
02/02:55pm - - - - - W 30 52 16 28 - - -
02/02:30pm - - - - - W 28 37 15 20 - - -
02/02:00pm - - - - - W 28 33 15 18 - - -
02/01:30pm - - - - - W 22 28 12 15 - - -
02/01:00pm - - - - - W 24 32 13 17 - - -
02/12:30pm - - - - - W 28 33 15 18 - - -
02/12:00pm - - - - - W 26 30 14 16 - - -
02/11:30am - - - - - W 28 32 15 17 - - -
02/11:00am - - - - - W 24 30 13 16 - - -
02/10:30am - - - - - W 26 30 14 16 - - -
02/10:00am - - - - - W 28 33 15 18 - - -
02/09:30am - - - - - WSW 26 32 14 17 - - -
02/09:00am - - - - - WSW 26 32 14 17 - - -
02/08:30am - - - - - WSW 24 28 13 15 - - -
02/08:00am - - - - - W 26 32 14 17 - - -
02/07:30am - - - - - WSW 26 32 14 17 - - -
02/07:00am - - - - - WSW 28 37 15 20 - - -
02/06:30am - - - - - W 24 28 13 15 - - -
02/06:00am - - - - - W 19 22 10 12 - - -
02/05:30am - - - - - W 19 24 10 13 - - -
02/05:00am - - - - - WSW 19 22 10 12 - - -
02/04:30am - - - - - WSW 22 28 12 15 - - -
02/04:00am - - - - - W 20 24 11 13 - - -
02/03:30am - - - - - W 20 24 11 13 - - -
02/03:00am - - - - - W 19 20 10 11 - - -
02/02:30am - - - - - W 15 17 8 9 - - -
02/02:00am - - - - - W 15 19 8 10 - - -
02/01:30am - - - - - WSW 13 15 7 8 - - -
02/01:00am - - - - - WSW 11 13 6 7 - - -
02/12:30am - - - - - SW 9 13 5 7 - - -
02/12:00am - - - - - WSW 11 15 6 8 - - -
 
Date/Time
CST
Temp
°C
App
Temp
°C
Dew
Point
Rel
Hum
%
Delta-T
°C
Wind Press
QNH
hPa
Press
MSL
hPa
Rain
since 9 am
mm
Dir
 
Spd
km/h
Gust
km/h
Spd
kts
Gust
kts
01/11:30pm - - - - - WSW 6 7 3 4 - - -
01/11:00pm - - - - - SSW 9 11 5 6 - - -
01/10:30pm - - - - - SSW 19 20 10 11 - - -
01/10:00pm - - - - - SSW 17 19 9 10 - - -
01/09:30pm - - - - - SSW 11 15 6 8 - - -
01/09:00pm - - - - - S 13 17 7 9 - - -
01/08:30pm - - - - - S 19 24 10 13 - - -
01/08:00pm - - - - - S 11 13 6 7 - - -
01/07:30pm - - - - - S 9 15 5 8 - - -
01/07:00pm - - - - - SE 7 9 4 5 - - -
01/06:30pm - - - - - S 19 20 10 11 - - -
01/06:00pm - - - - - SSE 11 15 6 8 - - -
01/05:30pm - - - - - WSW 6 11 3 6 - - -
01/05:00pm - - - - - ESE 6 7 3 4 - - -
01/04:30pm - - - - - ESE 7 7 4 4 - - -
01/04:00pm - - - - - SSW 11 13 6 7 - - -
01/03:30pm - - - - - SE 6 7 3 4 - - -
01/03:00pm - - - - - S 7 7 4 4 - - -
01/02:30pm - - - - - SSE 7 11 4 6 - - -
01/02:00pm - - - - - SE 7 11 4 6 - - -
01/01:30pm - - - - - S 13 17 7 9 - - -
01/01:00pm - - - - - SW 20 26 11 14 - - -
01/12:30pm - - - - - ESE 15 20 8 11 - - -
01/12:00pm - - - - - S 22 26 12 14 - - -
01/11:30am - - - - - SW 20 24 11 13 - - -
01/11:00am - - - - - E 7 9 4 5 - - -
01/10:30am - - - - - SSE 9 9 5 5 - - -
01/10:00am - - - - - SSE 20 28 11 15 - - -
01/09:30am - - - - - S 19 24 10 13 - - -
01/09:00am - - - - - S 20 26 11 14 - - -
01/08:30am - - - - - S 24 30 13 16 - - -
01/08:00am - - - - - S 26 30 14 16 - - -
01/07:30am - - - - - SSW 20 24 11 13 - - -
01/07:00am - - - - - SW 17 20 9 11 - - -
01/06:30am - - - - - SSW 7 7 4 4 - - -
01/06:00am - - - - - S 15 19 8 10 - - -
01/05:30am - - - - - S 26 32 14 17 - - -
01/05:00am - - - - - SSW 37 44 20 24 - - -
01/04:49am - - - - - W 32 52 17 28 - - -
01/04:30am - - - - - NW 28 33 15 18 - - -
01/04:00am - - - - - NW 24 28 13 15 - - -
01/03:30am - - - - - NW 28 32 15 17 - - -
01/03:00am - - - - - NW 30 37 16 20 - - -
01/02:30am - - - - - NW 26 32 14 17 - - -
01/02:00am - - - - - NW 26 32 14 17 - - -
01/01:30am - - - - - NW 26 30 14 16 - - -
01/01:00am - - - - - NNW 28 35 15 19 - - -
01/12:30am - - - - - NNW 32 35 17 19 - - -
01/12:00am - - - - - NNW 32 39 17 21 - - -
 
Date/Time
CST
Temp
°C
App
Temp
°C
Dew
Point
Rel
Hum
%
Delta-T
°C
Wind Press
QNH
hPa
Press
MSL
hPa
Rain
since 9 am
mm
Dir
 
Spd
km/h
Gust
km/h
Spd
kts
Gust
kts
31/11:30pm - - - - - NNW 28 33 15 18 - - -
31/11:00pm - - - - - NNW 26 35 14 19 - - -
31/10:30pm - - - - - NNW 20 26 11 14 - - -
31/10:00pm - - - - - N 22 28 12 15 - - -
31/09:30pm - - - - - NNE 19 22 10 12 - - -
31/09:00pm - - - - - NNE 11 13 6 7 - - -
31/08:30pm - - - - - NNE 9 9 5 5 - - -
31/08:00pm - - - - - NE 9 11 5 6 - - -
31/07:30pm - - - - - NE 6 7 3 4 - - -
31/07:00pm - - - - - NNE 4 6 2 3 - - -
31/06:30pm - - - - - N 9 9 5 5 - - -
31/06:00pm - - - - - N 9 9 5 5 - - -
31/05:30pm - - - - - NNW 9 9 5 5 - - -
31/05:00pm - - - - - NNW 7 9 4 5 - - -
31/04:30pm - - - - - NW 9 11 5 6 - - -
31/04:00pm - - - - - WNW 11 13 6 7 - - -
31/03:30pm - - - - - W 17 19 9 10 - - -
31/03:00pm - - - - - NW 11 15 6 8 - - -
31/02:30pm - - - - - NW 11 13 6 7 - - -
31/02:00pm - - - - - NW 6 9 3 5 - - -
31/01:30pm - - - - - NW 13 17 7 9 - - -
31/01:00pm - - - - - NNW 9 11 5 6 - - -
31/12:30pm - - - - - NNW 9 13 5 7 - - -
31/12:00pm - - - - - N 7 11 4 6 - - -
31/11:30am - - - - - NNE 9 11 5 6 - - -
31/11:00am - - - - - NNE 11 13 6 7 - - -
31/10:30am - - - - - NE 17 19 9 10 - - -
31/10:00am - - - - - NE 15 19 8 10 - - -
31/09:30am - - - - - NE 19 22 10 12 - - -
31/09:00am - - - - - NE 17 20 9 11 - - -
31/08:30am - - - - - NE 17 22 9 12 - - -
31/08:00am - - - - - NE 19 22 10 12 - - -
31/07:30am - - - - - N 15 19 8 10 - - -
31/07:00am - - - - - NNE 15 19 8 10 - - -
31/06:30am - - - - - NNE 13 15 7 8 - - -
31/06:00am - - - - - N 13 15 7 8 - - -
31/05:30am - - - - - NNE 9 13 5 7 - - -
31/05:00am - - - - - N 11 15 6 8 - - -
31/04:30am - - - - - NNE 13 17 7 9 - - -
31/04:00am - - - - - NE 11 13 6 7 - - -

Other Formats:

Comma delimited format used in spreadsheet applications
http://www.bom.gov.au/fwo/IDS60801/IDS60801.95675.axf

JavaScript Object Notation format (JSON) in row-major order
http://www.bom.gov.au/fwo/IDS60801/IDS60801.95675.json